Time;durP1;ratioP1;P1;durP2;ratioP2;P2;SDS_P1;SDS_P2;PMS_P1;PMS_P2;Temp;Humidity;BMP_temperature;BMP_pressure;BME280_temperature;BME280_humidity;BME280_pressure;Samples;Min_cycle;Max_cycle;Signal;HPM_P1;HPM_P2
2022/11/01 00:02:47;;;;;;;39.20;20.50;;;;;;;8.01;100.00;98933.20;214650;1309;22465;-84
2022/11/01 00:07:52;;;;;;;32.90;17.70;;;;;;;7.94;100.00;98937.94;214927;1309;25324;-84
2022/11/01 00:12:53;;;;;;;32.00;15.70;;;;;;;7.90;100.00;98932.40;214599;1309;22502;-83
2022/11/01 00:17:55;;;;;;;33.30;16.60;;;;;;;7.84;100.00;98914.47;214705;1309;22552;-84
2022/11/01 00:22:57;;;;;;;27.30;14.40;;;;;;;7.88;100.00;98901.15;214799;1309;22516;-83
2022/11/01 00:27:59;;;;;;;26.50;13.10;;;;;;;7.92;100.00;98897.56;214930;1309;22899;-81
2022/11/01 00:33:03;;;;;;;24.50;13.60;;;;;;;7.91;100.00;98899.60;215051;1309;25559;-84
2022/11/01 00:38:05;;;;;;;27.60;13.20;;;;;;;7.90;100.00;98896.08;214760;1309;27397;-82
2022/11/01 00:43:07;;;;;;;27.30;13.80;;;;;;;7.91;100.00;98892.52;214873;1310;25226;-82
2022/11/01 00:48:09;;;;;;;24.90;12.90;;;;;;;7.92;100.00;98890.90;214913;1309;22489;-84
2022/11/01 00:53:11;;;;;;;24.50;13.40;;;;;;;7.93;100.00;98898.69;214854;1309;25294;-83
2022/11/01 00:58:13;;;;;;;22.90;12.50;;;;;;;7.97;100.00;98890.04;214722;1309;22468;-83
2022/11/01 01:03:15;;;;;;;25.70;13.30;;;;;;;8.02;100.00;98885.40;214727;1309;22736;-83
2022/11/01 01:08:17;;;;;;;25.10;13.20;;;;;;;8.08;100.00;98875.14;214955;1309;22554;-84
2022/11/01 01:13:19;;;;;;;23.40;12.60;;;;;;;8.16;100.00;98869.16;214825;1307;22976;-84
2022/11/01 01:18:21;;;;;;;27.30;13.30;;;;;;;8.25;100.00;98870.53;214778;1309;24286;-83
2022/11/01 01:23:23;;;;;;;32.40;14.70;;;;;;;8.35;100.00;98868.10;214762;1309;23922;-84
2022/11/01 01:28:25;;;;;;;24.60;12.60;;;;;;;8.45;100.00;98866.39;214917;1309;22534;-84
2022/11/01 01:33:26;;;;;;;31.90;13.90;;;;;;;8.54;100.00;98861.71;214820;1309;22510;-84
2022/11/01 01:38:29;;;;;;;27.10;13.20;;;;;;;8.64;100.00;98859.39;214778;1309;22532;-84
2022/11/01 01:43:42;;;;;;;27.30;14.10;;;;;;;8.75;100.00;98855.66;214833;1309;22522;-84
2022/11/01 01:48:48;;;;;;;26.10;13.40;;;;;;;8.87;100.00;98849.35;214773;1309;22454;-84
2022/11/01 01:53:54;;;;;;;29.80;15.10;;;;;;;8.96;100.00;98846.27;214900;1296;22472;-85
2022/11/01 01:59:00;;;;;;;26.00;14.30;;;;;;;9.04;100.00;98837.66;214891;1309;22461;-84
2022/11/01 02:04:05;;;;;;;22.10;13.70;;;;;;;9.13;100.00;98838.09;214700;1308;22475;-84
2022/11/01 02:09:08;;;;;;;24.10;13.20;;;;;;;9.21;100.00;98835.69;214574;1309;105734;-84
2022/11/01 02:14:10;;;;;;;25.60;14.10;;;;;;;9.25;100.00;98833.26;214626;1309;22475;-83
2022/11/01 02:19:24;;;;;;;24.20;15.10;;;;;;;9.30;100.00;98846.64;214828;1309;25356;-84
2022/11/01 02:24:55;;;;;;;26.70;15.40;;;;;;;9.31;100.00;98843.16;215607;1309;22502;-84
2022/11/01 02:30:19;;;;;;;28.10;14.90;;;;;;;9.34;100.00;98835.39;215338;1308;24263;-83
2022/11/01 02:35:23;;;;;;;25.30;15.10;;;;;;;9.37;100.00;98831.15;214904;1309;24326;-84
2022/11/01 02:40:47;;;;;;;25.40;14.40;;;;;;;9.38;100.00;98834.02;214758;1309;24489;-84
2022/11/01 02:45:50;;;;;;;19.20;12.80;;;;;;;9.35;100.00;98831.57;214773;1309;22528;-84
2022/11/01 02:50:55;;;;;;;19.60;11.40;;;;;;;9.28;100.00;98824.09;214882;1309;24302;-84
2022/11/01 02:55:57;;;;;;;22.10;13.20;;;;;;;9.16;100.00;98819.42;214899;1295;22476;-85
2022/11/01 03:00:59;;;;;;;22.60;13.40;;;;;;;9.04;100.00;98820.19;214809;1306;22662;-84
2022/11/01 03:06:04;;;;;;;21.30;11.90;;;;;;;8.95;100.00;98824.58;214852;1309;24284;-85
2022/11/01 03:11:35;;;;;;;25.60;15.10;;;;;;;8.87;100.00;98826.27;214842;1309;22506;-84
2022/11/01 03:16:39;;;;;;;;;;;;;;;8.78;100.00;98827.07;214635;1309;22451;-83
2022/11/01 03:22:04;;;;;;;24.80;14.30;;;;;;;8.71;100.00;98824.53;214766;1309;22573;-84
2022/11/01 03:27:14;;;;;;;23.40;14.00;;;;;;;8.65;100.00;98824.61;214798;1309;22957;-83
2022/11/01 03:32:18;;;;;;;;;;;;;;;8.58;100.00;98829.23;214819;1308;22512;-84
2022/11/01 03:37:21;;;;;;;19.40;12.30;;;;;;;8.51;100.00;98826.80;214862;1310;24334;-84
2022/11/01 03:42:24;;;;;;;25.10;13.70;;;;;;;8.45;100.00;98818.77;214758;1309;24320;-84
2022/11/01 03:47:26;;;;;;;21.00;11.80;;;;;;;8.37;100.00;98820.38;214769;1309;25068;-84
2022/11/01 03:52:28;;;;;;;21.00;12.10;;;;;;;8.31;100.00;98815.80;214752;1309;22643;-83
2022/11/01 03:57:30;;;;;;;20.40;11.40;;;;;;;8.30;100.00;98806.94;214820;1309;24295;-83
2022/11/01 04:02:31;;;;;;;16.70;10.00;;;;;;;8.36;100.00;98804.83;214729;1309;24327;-83
2022/11/01 04:07:33;;;;;;;16.90;10.20;;;;;;;8.48;100.00;98807.74;214824;1309;22633;-84
2022/11/01 04:12:35;;;;;;;16.10;9.40;;;;;;;8.58;100.00;98801.46;214748;1309;22476;-84
2022/11/01 04:23:03;;;;;;;14.90;8.90;;;;;;;8.76;100.00;98799.92;214834;1310;24256;-84
2022/11/01 04:28:06;;;;;;;12.90;7.20;;;;;;;8.85;100.00;98796.46;214782;1310;22550;-85
2022/11/01 04:33:08;;;;;;;12.60;8.30;;;;;;;8.93;100.00;98796.90;214771;1310;22479;-84
2022/11/01 04:38:11;;;;;;;13.30;7.70;;;;;;;9.00;100.00;98789.98;214869;1310;22723;-84
2022/11/01 04:43:13;;;;;;;14.60;7.70;;;;;;;9.08;100.00;98778.36;214895;1309;23898;-84
2022/11/01 04:48:15;;;;;;;17.40;9.80;;;;;;;9.14;100.00;98779.35;214873;1310;25333;-84
2022/11/01 04:53:17;;;;;;;14.30;8.80;;;;;;;9.19;100.00;98780.70;214749;1309;22474;-83
2022/11/01 04:58:19;;;;;;;17.10;10.70;;;;;;;9.23;100.00;98777.73;214717;1309;22869;-83
2022/11/01 05:03:21;;;;;;;17.10;10.40;;;;;;;9.27;100.00;98773.95;214886;1310;22458;-83
2022/11/01 05:08:23;;;;;;;20.30;12.10;;;;;;;9.28;100.00;98770.73;214869;1310;25254;-84
2022/11/01 05:13:25;;;;;;;22.30;13.70;;;;;;;9.30;100.00;98768.31;214867;1310;26174;-83
2022/11/01 05:18:28;;;;;;;24.80;15.20;;;;;;;9.33;100.00;98765.52;214871;1309;24255;-84
2022/11/01 05:23:30;;;;;;;29.70;17.20;;;;;;;9.35;100.00;98754.33;214775;1309;25265;-84
2022/11/01 05:28:32;;;;;;;28.40;18.80;;;;;;;9.35;100.00;98756.36;214796;1309;22477;-84
2022/11/01 05:33:33;;;;;;;33.50;19.80;;;;;;;9.37;100.00;98754.63;215446;1309;24234;-83
2022/11/01 05:38:35;;;;;;;21.00;12.90;;;;;;;9.39;100.00;98751.99;215434;1309;23736;-84
2022/11/01 05:43:37;;;;;;;16.60;8.60;;;;;;;9.39;100.00;98753.22;215642;1309;22571;-83
2022/11/01 05:48:40;;;;;;;13.20;7.90;;;;;;;9.40;100.00;98757.06;215600;1309;22470;-83
2022/11/01 05:53:42;;;;;;;9.70;7.00;;;;;;;9.43;100.00;98751.20;215710;1307;24304;-84
2022/11/01 05:58:46;;;;;;;10.90;6.30;;;;;;;9.47;100.00;98747.38;215620;1309;25329;-83
2022/11/01 06:03:49;;;;;;;11.00;5.90;;;;;;;9.51;100.00;98750.86;215576;1309;25246;-83
2022/11/01 06:08:51;;;;;;;10.20;5.50;;;;;;;9.58;100.00;98753.85;215612;1309;25309;-84
2022/11/01 06:13:54;;;;;;;9.20;5.40;;;;;;;9.65;100.00;98746.35;215492;1309;22496;-83
2022/11/01 06:18:56;;;;;;;9.80;5.70;;;;;;;9.72;100.00;98739.70;215618;1309;22505;-84
2022/11/01 06:23:58;;;;;;;9.70;5.60;;;;;;;9.80;100.00;98740.80;215433;1309;22558;-84
2022/11/01 06:29:01;;;;;;;9.30;5.50;;;;;;;9.87;100.00;98750.09;215417;1309;22530;-84
2022/11/01 06:34:02;;;;;;;9.40;5.50;;;;;;;9.93;100.00;98749.22;215479;1309;22511;-84
2022/11/01 06:39:04;;;;;;;9.30;5.00;;;;;;;10.00;100.00;98758.51;215603;1302;23757;-84
2022/11/01 06:44:06;;;;;;;8.10;4.90;;;;;;;10.07;100.00;98763.67;215663;1309;25342;-84
2022/11/01 06:49:08;;;;;;;11.00;4.50;;;;;;;10.16;100.00;98761.88;215441;1309;22510;-84
2022/11/01 06:54:15;;;;;;;12.40;5.20;;;;;;;10.25;100.00;98756.52;215510;1309;22953;-84
2022/11/01 06:59:17;;;;;;;7.70;4.70;;;;;;;10.36;100.00;98751.96;215581;1309;23257;-86
2022/11/01 07:04:20;;;;;;;8.00;4.60;;;;;;;10.51;100.00;98756.97;215545;1309;22467;-84
2022/11/01 07:09:22;;;;;;;7.20;4.80;;;;;;;10.64;100.00;98755.02;215642;1309;22525;-84
2022/11/01 07:14:23;;;;;;;6.80;4.10;;;;;;;10.73;100.00;98761.88;215713;1309;22500;-85
2022/11/01 07:19:25;;;;;;;8.90;5.10;;;;;;;10.80;100.00;98760.00;214885;1309;25312;-84
2022/11/01 07:24:27;;;;;;;8.70;4.80;;;;;;;10.86;100.00;98765.02;214875;1309;22479;-84
2022/11/01 07:29:29;;;;;;;10.20;4.90;;;;;;;10.92;100.00;98759.30;214737;1309;22641;-85
2022/11/01 07:34:30;;;;;;;8.60;5.50;;;;;;;11.06;100.00;98761.23;214811;1309;22466;-83
2022/11/01 07:39:32;;;;;;;7.10;5.00;;;;;;;11.29;100.00;98763.35;214746;1309;26369;-83
2022/11/01 07:44:34;;;;;;;7.70;5.20;;;;;;;11.45;99.97;98757.35;214833;1308;22549;-83
2022/11/01 07:49:36;;;;;;;8.30;4.80;;;;;;;11.56;99.89;98760.98;214810;1309;25382;-82
2022/11/01 07:54:38;;;;;;;6.40;4.20;;;;;;;11.60;99.10;98764.82;214747;1309;25366;-83
2022/11/01 07:59:40;;;;;;;7.90;4.50;;;;;;;11.68;98.81;98773.48;214870;1309;23737;-83
2022/11/01 08:04:41;;;;;;;7.80;5.10;;;;;;;11.69;97.48;98793.64;214811;1309;23129;-81
2022/11/01 08:09:43;;;;;;;9.90;5.30;;;;;;;11.69;97.49;98801.05;214876;1309;25264;-84
2022/11/01 08:14:45;;;;;;;9.30;5.60;;;;;;;11.67;97.12;98795.81;214745;1309;22505;-83
2022/11/01 08:19:47;;;;;;;8.40;4.90;;;;;;;11.74;97.25;98790.85;214818;1309;25351;-83
2022/11/01 08:24:51;;;;;;;7.40;4.60;;;;;;;11.77;96.59;98800.85;214735;1309;25205;-83
2022/11/01 08:29:53;;;;;;;7.90;4.60;;;;;;;11.76;96.60;98801.19;215630;1309;22466;-83
2022/11/01 08:34:55;;;;;;;8.00;4.50;;;;;;;11.81;96.76;98785.73;215703;1309;25205;-83
2022/11/01 08:39:57;;;;;;;6.80;4.40;;;;;;;11.87;96.64;98783.39;215668;1309;24256;-83
2022/11/01 08:44:59;;;;;;;6.40;4.30;;;;;;;11.93;96.49;98788.66;215545;1293;22500;-83
2022/11/01 08:50:00;;;;;;;7.80;4.60;;;;;;;12.00;96.36;98798.77;215662;1309;24341;-83
2022/11/01 08:55:07;;;;;;;7.60;4.80;;;;;;;11.98;96.17;98797.45;215619;1309;23057;-81
2022/11/01 09:00:09;;;;;;;9.10;4.70;;;;;;;11.99;96.02;98795.92;215612;1309;22461;-84
2022/11/01 09:05:13;;;;;;;7.10;4.80;;;;;;;11.98;95.59;98796.80;215570;1308;22461;-83
2022/11/01 09:10:15;;;;;;;7.40;4.90;;;;;;;12.03;95.28;98806.05;214740;1295;22482;-83
2022/11/01 09:15:17;;;;;;;7.40;4.60;;;;;;;12.14;95.79;98812.47;214648;1309;25349;-84
2022/11/01 09:20:19;;;;;;;7.80;4.80;;;;;;;12.31;95.93;98818.70;215681;1301;22477;-81
2022/11/01 09:25:21;;;;;;;9.50;4.70;;;;;;;12.46;95.46;98820.23;214809;1309;22548;-83
2022/11/01 09:30:24;;;;;;;11.00;5.50;;;;;;;12.49;94.14;98827.95;214858;1307;22524;-83
2022/11/01 09:35:26;;;;;;;6.70;4.30;;;;;;;12.45;94.01;98840.13;214740;1308;25944;-83
2022/11/01 09:40:36;;;;;;;10.00;5.80;;;;;;;12.44;93.55;98832.42;214794;1308;25302;-84
2022/11/01 09:45:38;;;;;;;11.20;5.80;;;;;;;12.52;93.69;98822.48;214860;1309;25322;-83
2022/11/01 09:50:42;;;;;;;8.60;5.50;;;;;;;12.65;93.35;98828.17;214736;1309;24254;-83
2022/11/01 09:56:26;;;;;;;10.00;6.30;;;;;;;12.74;93.03;98817.52;214797;1309;24265;-84
2022/11/01 10:01:39;;;;;;;8.50;5.90;;;;;;;12.79;92.31;98807.98;214541;1309;24977;-84
2022/11/01 10:06:48;;;;;;;8.80;6.60;;;;;;;12.85;92.18;98811.52;214790;1309;22494;-83
2022/11/01 10:11:59;;;;;;;10.20;6.50;;;;;;;12.94;91.94;98815.41;214812;1308;22483;-84
2022/11/01 10:17:12;;;;;;;10.30;6.10;;;;;;;13.00;90.94;98809.36;214808;1309;25406;-82
2022/11/01 10:22:26;;;;;;;11.90;6.80;;;;;;;13.06;90.63;98805.84;214791;1309;22480;-83
2022/11/01 10:27:40;;;;;;;10.60;6.30;;;;;;;13.07;90.49;98810.29;214876;1309;24241;-83
2022/11/01 10:33:19;;;;;;;10.40;7.10;;;;;;;13.04;90.27;98808.84;214874;1309;22482;-84
2022/11/01 10:38:38;;;;;;;9.80;6.50;;;;;;;12.98;90.51;98800.54;214809;1309;22542;-83
2022/11/01 10:44:04;;;;;;;8.80;5.70;;;;;;;12.99;90.19;98798.20;214725;1309;25020;-83
2022/11/01 10:49:16;;;;;;;22.70;13.40;;;;;;;13.03;90.62;98808.86;215206;1309;22512;-84
2022/11/01 10:54:24;;;;;;;10.90;6.70;;;;;;;13.15;90.17;98816.45;215415;1309;22656;-83
2022/11/01 10:59:41;;;;;;;12.00;6.90;;;;;;;13.13;89.55;98817.45;215556;1304;22483;-84
2022/11/01 11:04:43;;;;;;;10.20;6.50;;;;;;;13.21;89.88;98821.52;215591;1309;25231;-84
2022/11/01 11:09:48;;;;;;;11.30;7.00;;;;;;;13.29;89.59;98815.11;214791;1309;22936;-82
2022/11/01 11:14:58;;;;;;;10.70;6.20;;;;;;;13.38;89.45;98809.34;214810;1308;24222;-85
2022/11/01 11:20:04;;;;;;;10.30;6.50;;;;;;;13.45;89.19;98811.90;215590;1309;24335;-84
2022/11/01 11:25:16;;;;;;;10.00;5.80;;;;;;;13.53;89.07;98815.86;215563;1309;24258;-84
2022/11/01 11:30:31;;;;;;;12.40;6.70;;;;;;;13.54;88.39;98818.42;215709;1309;25347;-85
2022/11/01 11:35:36;;;;;;;8.90;5.90;;;;;;;13.50;88.58;98822.75;214938;1309;22529;-84
2022/11/01 11:40:37;;;;;;;9.70;5.90;;;;;;;13.53;88.65;98827.27;214859;1293;22520;-83
2022/11/01 11:45:39;;;;;;;10.10;5.80;;;;;;;13.57;87.88;98824.97;214853;1309;23258;-83
2022/11/01 11:50:42;;;;;;;6.80;4.70;;;;;;;13.69;88.17;98819.30;214826;1307;22491;-85
2022/11/01 11:55:47;;;;;;;9.50;6.10;;;;;;;13.72;87.76;98820.99;214729;1309;25535;-82
2022/11/01 12:00:52;;;;;;;9.80;6.40;;;;;;;13.66;87.86;98829.01;214762;1309;22961;-85
2022/11/01 12:06:07;;;;;;;8.00;4.60;;;;;;;13.62;87.66;98829.27;214771;1296;24265;-85
2022/11/01 12:11:10;;;;;;;8.30;5.20;;;;;;;13.57;87.21;98826.31;214624;1308;22489;-84
2022/11/01 12:16:13;;;;;;;7.80;4.90;;;;;;;13.54;87.38;98831.39;214666;1308;22570;-85
2022/11/01 12:21:18;;;;;;;8.00;5.30;;;;;;;13.54;87.38;98824.30;214886;1309;22476;-84
2022/11/01 12:26:23;;;;;;;7.10;4.70;;;;;;;13.51;87.30;98819.73;214877;1309;22463;-83
2022/11/01 12:31:26;;;;;;;8.10;4.70;;;;;;;13.50;87.35;98825.83;214787;1309;23721;-83
2022/11/01 12:36:50;;;;;;;8.10;5.50;;;;;;;13.50;87.16;98835.95;214660;1309;22503;-83
2022/11/01 12:41:58;;;;;;;8.20;4.70;;;;;;;13.57;87.62;98836.55;214822;1309;22504;-86
2022/11/01 12:47:05;;;;;;;7.10;4.90;;;;;;;13.70;87.37;98837.52;214830;1309;25259;-84
2022/11/01 12:52:50;;;;;;;7.60;4.50;;;;;;;13.83;87.28;98843.41;215631;1309;25334;-82
2022/11/01 12:57:53;;;;;;;7.90;4.50;;;;;;;13.91;86.69;98845.84;214854;1302;22473;-84
2022/11/01 13:03:10;;;;;;;6.80;4.70;;;;;;;13.95;86.59;98853.90;214821;1309;24293;-83
2022/11/01 13:08:22;;;;;;;6.40;4.00;;;;;;;13.99;86.71;98853.17;214806;1309;25345;-84
2022/11/01 13:13:30;;;;;;;6.20;3.90;;;;;;;14.07;86.90;98852.67;214734;1309;22464;-83
2022/11/01 13:18:57;;;;;;;9.10;4.80;;;;;;;14.07;86.20;98855.52;214884;1309;25324;-84
2022/11/01 13:24:12;;;;;;;7.40;4.30;;;;;;;13.98;85.94;98861.42;214713;1303;22576;-83
2022/11/01 13:29:22;;;;;;;7.20;4.10;;;;;;;13.90;86.34;98858.13;214755;1309;22510;-81
2022/11/01 13:34:36;;;;;;;6.70;4.50;;;;;;;13.85;86.39;98860.42;215640;1309;25215;-83
2022/11/01 13:40:19;;;;;;;17.00;10.90;;;;;;;13.77;86.44;98859.70;215765;1309;22496;-84
2022/11/01 13:45:46;;;;;;;16.30;10.10;;;;;;;13.67;86.74;98865.05;215542;1309;22471;-84
2022/11/01 13:51:08;;;;;;;12.40;7.60;;;;;;;13.57;86.80;98866.23;215784;1307;23652;-83
2022/11/01 13:56:21;;;;;;;8.10;4.40;;;;;;;13.45;86.77;98862.98;215622;1309;24402;-84
2022/11/01 14:01:34;;;;;;;6.30;4.60;;;;;;;13.24;86.95;98870.35;215656;1309;22472;-83
2022/11/01 14:06:40;;;;;;;8.40;4.50;;;;;;;13.05;87.22;98877.77;215488;1309;117802;-83
2022/11/01 14:11:49;;;;;;;11.60;4.50;;;;;;;12.87;87.65;98879.55;215436;1309;22516;-83
2022/11/01 14:16:51;;;;;;;9.80;5.10;;;;;;;12.68;88.11;98878.47;214742;1303;22479;-83
2022/11/01 14:21:53;;;;;;;6.70;4.30;;;;;;;12.55;88.64;98876.52;214781;1309;24452;-84
2022/11/01 14:26:55;;;;;;;9.60;5.30;;;;;;;12.43;89.05;98876.33;214880;1309;22484;-83
2022/11/01 14:31:58;;;;;;;12.90;5.20;;;;;;;12.30;89.42;98876.68;214722;1309;25266;-83
2022/11/01 14:37:10;;;;;;;8.30;5.30;;;;;;;12.20;89.90;98872.02;214661;1308;23195;-82
2022/11/01 14:42:21;;;;;;;11.40;5.80;;;;;;;12.08;90.20;98866.60;214673;1309;25322;-83
2022/11/01 14:47:31;;;;;;;9.60;5.60;;;;;;;11.95;90.51;98868.84;214834;1309;25447;-83
2022/11/01 14:52:42;;;;;;;7.90;5.20;;;;;;;11.85;90.75;98871.85;214826;1309;22477;-83
2022/11/01 14:57:44;;;;;;;10.00;5.60;;;;;;;11.75;91.09;98870.35;214658;1309;22561;-83
2022/11/01 15:02:46;;;;;;;8.40;4.80;;;;;;;11.65;91.48;98877.68;214682;1309;22497;-83
2022/11/01 15:07:52;;;;;;;8.80;5.30;;;;;;;11.55;91.70;98884.56;214874;1309;22578;-84
2022/11/01 15:13:01;;;;;;;7.60;5.20;;;;;;;11.42;92.23;98886.04;214671;1307;22475;-83
2022/11/01 15:18:15;;;;;;;11.50;6.50;;;;;;;11.29;92.47;98892.39;214828;1309;22517;-82
2022/11/01 15:23:21;;;;;;;12.30;6.60;;;;;;;11.15;92.96;98892.31;214815;1309;22952;-83
2022/11/01 15:28:31;;;;;;;13.80;6.90;;;;;;;11.04;93.33;98892.67;214798;1309;22589;-83
2022/11/01 15:33:33;;;;;;;11.30;5.10;;;;;;;10.92;93.67;98892.34;214691;1309;24254;-83
2022/11/01 15:38:51;;;;;;;10.20;6.10;;;;;;;10.81;93.74;98900.79;214704;1309;22723;-84
2022/11/01 15:43:56;;;;;;;16.20;11.10;;;;;;;10.73;94.60;98904.73;214746;1305;22457;-83
2022/11/01 15:49:04;;;;;;;13.00;6.90;;;;;;;10.65;94.87;98909.16;214675;1309;24095;-83
2022/11/01 15:54:22;;;;;;;13.60;6.60;;;;;;;10.55;95.23;98912.85;214719;1309;23362;-83
2022/11/01 15:59:58;;;;;;;10.00;7.10;;;;;;;10.46;95.91;98915.09;214767;1303;22471;-83
2022/11/01 16:05:00;;;;;;;9.90;6.60;;;;;;;10.38;95.95;98917.02;214828;1309;22486;-83
2022/11/01 16:10:04;;;;;;;12.40;7.70;;;;;;;10.30;96.20;98918.33;214681;1308;25233;-83
2022/11/01 16:15:30;;;;;;;13.20;7.80;;;;;;;10.23;96.72;98917.86;214896;1309;22486;-83
2022/11/01 16:20:35;;;;;;;12.60;7.10;;;;;;;10.15;96.77;98914.90;215459;1308;24269;-82
2022/11/01 16:25:38;;;;;;;13.60;8.20;;;;;;;10.07;97.31;98923.20;214750;1309;24338;-83
2022/11/01 16:30:48;;;;;;;14.30;7.80;;;;;;;10.02;97.63;98934.70;214669;1309;25278;-82
2022/11/01 16:35:57;;;;;;;14.70;8.80;;;;;;;9.97;98.13;98930.95;214730;1309;22467;-83
2022/11/01 16:41:03;;;;;;;15.20;8.40;;;;;;;9.92;98.21;98935.36;214927;1309;25500;-83
2022/11/01 16:46:05;;;;;;;12.50;7.80;;;;;;;9.88;98.31;98939.73;214754;1309;22495;-82
2022/11/01 16:51:08;;;;;;;16.50;8.80;;;;;;;9.83;98.63;98947.10;214824;1309;23786;-83
2022/11/01 16:56:15;;;;;;;18.90;11.20;;;;;;;9.78;98.75;98949.59;214921;1309;22522;-83
2022/11/01 17:01:37;;;;;;;15.60;9.00;;;;;;;9.76;98.97;98957.48;214744;1302;22579;-83
2022/11/01 17:06:39;;;;;;;16.20;9.10;;;;;;;9.74;99.21;98964.59;214750;1309;22515;-83
2022/11/01 17:11:43;;;;;;;17.50;10.20;;;;;;;9.72;99.84;98975.64;214858;1295;23780;-83
2022/11/01 17:16:52;;;;;;;;;;;;;;;9.72;99.94;98978.37;214832;1309;22472;-83
2022/11/01 17:21:54;;;;;;;20.10;10.60;;;;;;;9.68;99.96;98982.45;214938;1309;22476;-83
2022/11/01 17:26:59;;;;;;;17.90;10.20;;;;;;;9.65;100.00;98982.09;214818;1309;22599;-82
2022/11/01 17:32:02;;;;;;;19.80;10.90;;;;;;;9.67;100.00;98985.74;214826;1309;22564;-82
2022/11/01 17:37:05;;;;;;;17.90;9.50;;;;;;;9.68;100.00;98984.23;214678;1309;22457;-83
2022/11/01 17:42:08;;;;;;;16.70;10.00;;;;;;;9.70;100.00;98992.61;214730;1309;25309;-83
2022/11/01 17:47:13;;;;;;;20.20;10.70;;;;;;;9.71;100.00;98997.36;214942;1309;23042;-83
2022/11/01 17:52:16;;;;;;;19.60;11.10;;;;;;;9.71;100.00;98998.27;214898;1309;22611;-83
2022/11/01 17:57:18;;;;;;;19.40;10.50;;;;;;;9.71;100.00;99001.17;214797;1309;24278;-84
2022/11/01 18:02:20;;;;;;;18.20;11.40;;;;;;;9.71;100.00;99001.91;214763;1309;22600;-82
2022/11/01 18:07:23;;;;;;;17.30;10.50;;;;;;;9.68;100.00;98999.09;214679;1309;22486;-82
2022/11/01 18:12:35;;;;;;;18.60;10.80;;;;;;;9.66;100.00;98998.90;214704;1309;22646;-83
2022/11/01 18:17:44;;;;;;;22.20;12.20;;;;;;;9.64;100.00;98991.10;214824;1309;22493;-82
2022/11/01 18:22:56;;;;;;;18.50;11.20;;;;;;;9.61;100.00;98991.53;214802;1309;25499;-84
2022/11/01 18:28:00;;;;;;;20.30;11.40;;;;;;;9.59;100.00;98994.17;214747;1309;22478;-84
2022/11/01 18:33:30;;;;;;;20.10;11.30;;;;;;;9.59;100.00;98993.27;214868;1307;24402;-82
2022/11/01 18:38:45;;;;;;;22.50;12.80;;;;;;;9.57;100.00;98997.07;214848;1309;25210;-82
2022/11/01 18:43:50;;;;;;;19.00;11.60;;;;;;;9.54;100.00;99000.73;214897;1309;22662;-83
2022/11/01 18:49:00;;;;;;;20.30;12.10;;;;;;;9.54;100.00;99011.69;214688;1309;24304;-83
2022/11/01 18:54:08;;;;;;;22.40;11.80;;;;;;;9.54;100.00;99005.70;214786;1309;22482;-82
2022/11/01 18:59:13;;;;;;;22.40;13.20;;;;;;;9.55;100.00;99006.65;214855;1309;22609;-84
2022/11/01 19:04:23;;;;;;;20.60;12.10;;;;;;;9.57;100.00;99014.30;214889;1309;22472;-83
2022/11/01 19:09:28;;;;;;;21.60;12.90;;;;;;;9.58;100.00;99017.77;214777;1309;24211;-83
2022/11/01 19:14:31;;;;;;;24.40;14.10;;;;;;;9.59;100.00;99021.08;214805;1309;24271;-82
2022/11/01 19:19:36;;;;;;;27.50;14.70;;;;;;;9.61;100.00;99021.77;214850;1301;22703;-83
2022/11/01 19:24:38;;;;;;;24.20;13.70;;;;;;;9.62;100.00;99027.01;214734;1309;22571;-81
2022/11/01 19:29:40;;;;;;;20.70;13.00;;;;;;;9.65;100.00;99032.06;214713;1304;22444;-85
2022/11/01 19:34:42;;;;;;;23.40;13.00;;;;;;;9.68;100.00;99035.74;214656;1295;22621;-82
2022/11/01 19:39:46;;;;;;;23.80;13.30;;;;;;;9.71;100.00;99034.61;214752;1309;24241;-84
2022/11/01 19:44:47;;;;;;;23.70;13.90;;;;;;;9.74;100.00;99029.77;214783;1309;22631;-84
2022/11/01 19:49:49;;;;;;;23.30;13.60;;;;;;;9.83;100.00;99028.55;214902;1309;22523;-82
2022/11/01 19:54:52;;;;;;;22.20;11.60;;;;;;;9.89;100.00;99038.08;214691;1309;22598;-85
2022/11/01 20:00:02;;;;;;;21.70;13.50;;;;;;;9.86;100.00;99035.33;214860;1309;22487;-81
2022/11/01 20:05:24;;;;;;;25.60;15.00;;;;;;;9.82;100.00;99044.61;214974;1309;24254;-83
2022/11/01 20:10:26;;;;;;;26.50;14.70;;;;;;;9.81;100.00;99045.29;214755;1309;22468;-83
2022/11/01 20:15:28;;;;;;;24.30;12.30;;;;;;;9.79;100.00;99058.58;214895;1309;22489;-83
2022/11/01 20:20:31;;;;;;;21.80;11.80;;;;;;;9.79;100.00;99065.11;215514;1309;22515;-83
2022/11/01 20:25:33;;;;;;;19.40;12.20;;;;;;;9.78;100.00;99067.54;214865;1309;22612;-84
2022/11/01 20:30:35;;;;;;;19.60;11.20;;;;;;;9.79;100.00;99074.96;214888;1309;24235;-83
2022/11/01 20:35:37;;;;;;;21.00;11.70;;;;;;;9.81;100.00;99072.05;214734;1309;25360;-86
2022/11/01 20:40:39;;;;;;;21.70;12.20;;;;;;;9.81;100.00;99078.48;214820;1309;22473;-83
2022/11/01 20:45:41;;;;;;;19.10;12.20;;;;;;;9.84;100.00;99088.58;214840;1309;23893;-83
2022/11/01 20:50:44;;;;;;;22.10;13.10;;;;;;;9.88;100.00;99091.45;214766;1309;23904;-84
2022/11/01 20:55:46;;;;;;;26.90;14.10;;;;;;;9.93;100.00;99095.13;214870;1309;22580;-83
2022/11/01 21:00:50;;;;;;;27.20;13.60;;;;;;;9.98;100.00;99093.16;214824;1309;22507;-84
2022/11/01 21:05:52;;;;;;;26.20;13.50;;;;;;;10.04;100.00;99101.65;214729;1309;22478;-82
2022/11/01 21:10:56;;;;;;;26.40;13.50;;;;;;;10.08;100.00;99101.73;214684;1309;23951;-82
2022/11/01 21:16:00;;;;;;;21.10;13.10;;;;;;;10.12;100.00;99108.23;214794;1305;22541;-83
2022/11/01 21:21:37;;;;;;;27.30;13.30;;;;;;;10.15;100.00;99098.80;214736;1309;22467;-83
2022/11/01 21:26:46;;;;;;;26.00;14.10;;;;;;;10.15;100.00;99099.92;214613;1309;22660;-83
2022/11/01 21:31:55;;;;;;;26.70;15.20;;;;;;;10.17;100.00;99099.58;214822;1309;24532;-83
2022/11/01 21:36:58;;;;;;;23.00;13.30;;;;;;;10.18;100.00;99102.04;214785;1309;22494;-83
2022/11/01 21:42:21;;;;;;;20.40;12.50;;;;;;;10.19;100.00;99099.89;214890;1309;24285;-83
2022/11/01 21:47:25;;;;;;;22.70;13.00;;;;;;;10.21;100.00;99096.88;214935;1309;24341;-82
2022/11/01 21:52:27;;;;;;;28.00;14.60;;;;;;;10.22;100.00;99092.33;214773;1309;22459;-83
2022/11/01 21:57:29;;;;;;;23.90;13.10;;;;;;;10.22;100.00;99083.71;214785;1309;22575;-83
2022/11/01 22:02:31;;;;;;;25.10;13.60;;;;;;;10.23;100.00;99072.88;214822;1309;25514;-82
2022/11/01 22:07:33;;;;;;;24.80;13.00;;;;;;;10.21;100.00;99067.22;214733;1309;22741;-83
2022/11/01 22:12:39;;;;;;;22.40;12.80;;;;;;;10.21;100.00;99082.86;214662;1309;22461;-82
2022/11/01 22:17:41;;;;;;;26.50;15.70;;;;;;;10.20;100.00;99085.85;214753;1309;25375;-82
2022/11/01 22:22:43;;;;;;;23.60;13.40;;;;;;;10.20;100.00;99090.25;214779;1310;24237;-83
2022/11/01 22:27:45;;;;;;;24.60;14.30;;;;;;;10.18;100.00;99086.30;214626;1309;22485;-83
2022/11/01 22:32:48;;;;;;;23.80;13.80;;;;;;;10.14;100.00;99081.52;214806;1310;22479;-82
2022/11/01 22:37:50;;;;;;;24.70;13.80;;;;;;;10.08;100.00;99083.09;214710;1310;22481;-83
2022/11/01 22:42:56;;;;;;;29.80;14.20;;;;;;;10.06;100.00;99083.98;214801;1309;25368;-83
2022/11/01 22:47:59;;;;;;;25.30;14.40;;;;;;;10.04;100.00;99080.43;214700;1309;22517;-83
2022/11/01 22:53:00;;;;;;;26.10;14.90;;;;;;;10.02;100.00;99082.07;214676;1309;23182;-82
2022/11/01 22:58:17;;;;;;;21.20;13.30;;;;;;;10.01;100.00;99091.59;214770;1309;22503;-81
2022/11/01 23:03:27;;;;;;;27.10;13.80;;;;;;;9.98;100.00;99099.21;214720;1309;22558;-83
2022/11/01 23:08:32;;;;;;;20.40;12.40;;;;;;;9.93;100.00;99092.55;215526;1309;22470;-83
2022/11/01 23:19:00;;;;;;;26.10;15.00;;;;;;;9.83;100.00;99072.80;214859;1309;23143;-81
2022/11/01 23:24:02;;;;;;;36.00;17.30;;;;;;;9.82;100.00;99077.68;214774;1312;22518;-82
2022/11/01 23:29:04;;;;;;;33.70;17.60;;;;;;;9.82;100.00;99085.66;214947;1309;22545;-83
2022/11/01 23:34:08;;;;;;;33.60;18.40;;;;;;;9.86;100.00;99085.52;214920;1309;22439;-83